Time;durP1;ratioP1;P1;durP2;ratioP2;P2;SDS_P1;SDS_P2;PMS_P1;PMS_P2;Temp;Humidity;BMP_temperature;BMP_pressure;BME280_temperature;BME280_humidity;BME280_pressure;Samples;Min_cycle;Max_cycle;Signal;HPM_P1;HPM_P2
2022/02/20 00:01:01;;;;;;;3.67;2.03;;;6.60;99.90;;;;;;5071112;28;20455;-45
2022/02/20 00:03:29;;;;;;;5.40;2.20;;;6.50;99.90;;;;;;5055400;28;20462;-45
2022/02/20 00:05:56;;;;;;;6.90;2.50;;;6.60;99.90;;;;;;5055498;28;20440;-45
2022/02/20 00:08:23;;;;;;;4.97;1.90;;;6.50;99.90;;;;;;5055271;28;20415;-44
2022/02/20 00:10:49;;;;;;;4.27;1.70;;;6.50;99.90;;;;;;5055258;28;20745;-45
2022/02/20 00:13:16;;;;;;;5.10;2.23;;;6.50;99.90;;;;;;5055372;28;20426;-45
2022/02/20 00:15:43;;;;;;;3.43;2.40;;;6.40;99.90;;;;;;5055339;28;20759;-45
2022/02/20 00:18:10;;;;;;;4.70;2.03;;;6.20;99.90;;;;;;5055144;28;20406;-44
2022/02/20 00:20:38;;;;;;;10.07;2.30;;;6.40;99.90;;;;;;5054750;28;20447;-45
2022/02/20 00:23:05;;;;;;;8.03;2.93;;;6.30;99.90;;;;;;5054927;28;20771;-45
2022/02/20 00:25:34;;;;;;;7.60;2.47;;;6.30;99.90;;;;;;5055293;28;20410;-44
2022/02/20 00:28:02;;;;;;;8.60;2.23;;;6.30;99.90;;;;;;5055054;28;20432;-44
2022/02/20 00:30:32;;;;;;;4.87;2.00;;;6.30;99.90;;;;;;5054687;28;20408;-44
2022/02/20 00:33:00;;;;;;;6.73;2.33;;;6.20;99.90;;;;;;5054881;28;20452;-44
2022/02/20 00:35:27;;;;;;;7.67;2.23;;;6.20;99.90;;;;;;5074431;28;20481;-44
2022/02/20 00:37:56;;;;;;;5.60;2.37;;;6.20;99.90;;;;;;5073748;28;20922;-44
2022/02/20 00:40:23;;;;;;;5.13;1.90;;;6.20;99.90;;;;;;5074422;28;20439;-44
2022/02/20 00:42:50;;;;;;;6.37;2.07;;;6.20;99.90;;;;;;5075128;28;20748;-44
2022/02/20 00:45:18;;;;;;;7.90;1.87;;;6.10;99.90;;;;;;5073216;28;20481;-44
2022/02/20 00:47:45;;;;;;;6.83;1.73;;;6.20;99.90;;;;;;5073376;28;20416;-45
2022/02/20 00:50:12;;;;;;;3.17;2.10;;;6.20;99.90;;;;;;5073189;28;20969;-45
2022/02/20 00:52:39;;;;;;;5.80;1.80;;;6.20;99.90;;;;;;5074945;28;20426;-45
2022/02/20 00:55:08;;;;;;;7.93;2.20;;;6.20;99.90;;;;;;5073283;28;20472;-44
2022/02/20 00:57:35;;;;;;;5.03;2.13;;;6.20;99.90;;;;;;5073845;28;20422;-43
2022/02/20 01:00:03;;;;;;;10.90;2.40;;;6.10;99.90;;;;;;5073088;28;20563;-44
2022/02/20 01:02:30;;;;;;;5.20;1.93;;;6.30;99.90;;;;;;5073490;28;20442;-44
2022/02/20 01:04:56;;;;;;;6.30;2.13;;;6.10;99.90;;;;;;5073682;28;20751;-45
2022/02/20 01:07:23;;;;;;;5.27;2.80;;;6.10;99.90;;;;;;5073924;28;20433;-45
2022/02/20 01:09:50;;;;;;;5.40;1.43;;;6.00;99.90;;;;;;5074223;28;20749;-44
2022/02/20 01:12:18;;;;;;;3.67;1.70;;;6.00;99.90;;;;;;5073227;28;20420;-46
2022/02/20 01:14:45;;;;;;;7.00;2.10;;;5.90;99.90;;;;;;5074018;28;20482;-45
2022/02/20 01:17:12;;;;;;;4.63;2.10;;;5.90;99.90;;;;;;5073899;28;20405;-44
2022/02/20 01:19:39;;;;;;;8.70;2.17;;;5.90;99.90;;;;;;5073965;28;20429;-45
2022/02/20 01:22:06;;;;;;;8.80;5.13;;;5.70;99.90;;;;;;5074447;28;20439;-44
2022/02/20 01:24:33;;;;;;;4.90;1.70;;;5.90;99.90;;;;;;5074136;28;20529;-45
2022/02/20 01:27:00;;;;;;;3.37;2.10;;;5.90;99.90;;;;;;5072724;28;20420;-45
2022/02/20 01:29:28;;;;;;;5.83;2.20;;;5.90;99.90;;;;;;5073474;28;20435;-45
2022/02/20 01:31:55;;;;;;;6.30;2.20;;;5.90;99.90;;;;;;5072478;28;20420;-45
2022/02/20 01:34:22;;;;;;;3.93;2.10;;;5.90;99.90;;;;;;5073473;28;20467;-45
2022/02/20 01:36:48;;;;;;;3.90;2.17;;;6.00;99.90;;;;;;5073713;28;20980;-45
2022/02/20 01:39:20;;;;;;;5.37;2.47;;;5.90;99.90;;;;;;5072021;28;20425;-44
2022/02/20 01:41:46;;;;;;;5.27;2.10;;;5.90;99.90;;;;;;5073728;28;20418;-45
2022/02/20 01:44:13;;;;;;;5.97;2.40;;;5.90;99.90;;;;;;5073689;28;20451;-45
2022/02/20 01:46:46;;;;;;;8.33;3.00;;;6.00;99.90;;;;;;5072800;28;20823;-45
2022/02/20 01:49:14;;;;;;;7.50;2.40;;;5.90;99.90;;;;;;5075113;28;20447;-45
2022/02/20 01:51:42;;;;;;;6.13;2.70;;;5.90;99.90;;;;;;5075491;28;20506;-45
2022/02/20 01:54:09;;;;;;;7.53;2.60;;;5.80;99.90;;;;;;5074301;28;20854;-45
2022/02/20 01:56:36;;;;;;;5.60;2.37;;;5.90;99.90;;;;;;5073609;28;20893;-45
2022/02/20 01:59:20;;;;;;;4.37;2.03;;;5.80;99.90;;;;;;5073105;28;20450;-44
2022/02/20 02:01:57;;;;;;;9.20;2.60;;;5.60;99.90;;;;;;5068825;28;20957;-45
2022/02/20 02:04:47;;;;;;;5.30;2.80;;;5.70;99.90;;;;;;5053275;28;20466;-45
2022/02/20 02:07:15;;;;;;;9.40;2.60;;;5.80;99.90;;;;;;5052009;28;20505;-45
2022/02/20 02:09:49;;;;;;;4.93;2.47;;;5.80;99.90;;;;;;5052000;28;20429;-45
2022/02/20 02:12:33;;;;;;;10.43;3.50;;;5.70;99.90;;;;;;5053803;28;20414;-44
2022/02/20 02:15:17;;;;;;;7.93;2.70;;;5.80;99.90;;;;;;5051802;28;20465;-45
2022/02/20 02:17:51;;;;;;;6.43;3.17;;;5.80;99.90;;;;;;5052357;28;20457;-45
2022/02/20 02:20:36;;;;;;;8.03;2.43;;;5.80;99.90;;;;;;5053123;28;20782;-45
2022/02/20 02:23:25;;;;;;;5.20;3.17;;;5.80;99.90;;;;;;5051648;28;20465;-45
2022/02/20 02:25:56;;;;;;;6.13;3.10;;;5.70;99.90;;;;;;5053172;28;20450;-45
2022/02/20 02:28:45;;;;;;;4.43;2.90;;;5.70;99.90;;;;;;5051412;28;20456;-45
2022/02/20 02:31:16;;;;;;;6.87;2.80;;;5.70;99.90;;;;;;5051486;28;20448;-44
2022/02/20 02:33:45;;;;;;;6.97;2.50;;;5.80;99.90;;;;;;5056281;28;20510;-44
2022/02/20 02:36:12;;;;;;;6.43;3.53;;;5.70;99.90;;;;;;5071316;28;20475;-44
2022/02/20 02:38:41;;;;;;;4.53;2.80;;;5.60;99.90;;;;;;5072158;28;20430;-44
2022/02/20 02:41:09;;;;;;;3.57;2.60;;;5.70;99.90;;;;;;5071369;28;20520;-44
2022/02/20 02:43:38;;;;;;;5.63;2.37;;;5.70;99.90;;;;;;5070900;28;21043;-44
2022/02/20 02:46:06;;;;;;;5.40;3.17;;;5.70;99.90;;;;;;5070871;28;20780;-44
2022/02/20 02:48:33;;;;;;;4.03;2.27;;;5.70;99.90;;;;;;5070951;28;20421;-44
2022/02/20 02:51:01;;;;;;;4.37;2.23;;;5.70;99.90;;;;;;5073046;28;20496;-44
2022/02/20 02:53:29;;;;;;;5.60;3.10;;;5.80;99.90;;;;;;5070957;28;20964;-44
2022/02/20 02:55:57;;;;;;;4.17;2.17;;;5.70;99.90;;;;;;5072553;28;20471;-44
2022/02/20 02:58:28;;;;;;;5.50;2.10;;;5.70;99.90;;;;;;5071546;28;21061;-44
2022/02/20 03:00:57;;;;;;;4.10;2.13;;;5.80;99.90;;;;;;5067783;28;20573;-44
2022/02/20 03:03:23;;;;;;;2.47;1.97;;;5.70;99.90;;;;;;5052331;28;20426;-45
2022/02/20 03:05:51;;;;;;;2.83;1.93;;;5.60;99.90;;;;;;5052372;28;20435;-44
2022/02/20 03:08:18;;;;;;;3.27;1.80;;;5.60;99.90;;;;;;5052342;28;20522;-44
2022/02/20 03:10:45;;;;;;;3.00;2.13;;;5.60;99.90;;;;;;5053503;28;20455;-43
2022/02/20 03:13:17;;;;;;;2.47;1.93;;;5.60;99.90;;;;;;5053016;28;20468;-44
2022/02/20 03:15:47;;;;;;;4.53;2.90;;;5.60;99.90;;;;;;5053175;28;20814;-44
2022/02/20 03:18:14;;;;;;;4.47;2.80;;;5.50;99.90;;;;;;5053080;28;20529;-44
2022/02/20 03:20:41;;;;;;;3.13;2.40;;;5.50;99.90;;;;;;5052841;28;20930;-45
2022/02/20 03:23:07;;;;;;;3.83;2.13;;;5.50;99.90;;;;;;5052081;28;20504;-45
2022/02/20 03:25:35;;;;;;;2.47;2.00;;;5.60;99.90;;;;;;5052325;28;20252;-45
2022/02/20 03:28:08;;;;;;;5.10;2.45;;;5.50;99.90;;;;;;5051481;28;20454;-45
2022/02/20 03:30:48;;;;;;;3.40;2.33;;;5.60;99.90;;;;;;5050520;28;20205;-45
2022/02/20 03:33:17;;;;;;;10.07;2.47;;;5.50;99.90;;;;;;5051573;28;20224;-45
2022/02/20 03:35:45;;;;;;;5.68;2.83;;;5.50;99.90;;;;;;5071236;28;20489;-45
2022/02/20 03:38:15;;;;;;;6.63;2.13;;;5.50;99.90;;;;;;5071701;28;20200;-44
2022/02/20 03:40:42;;;;;;;3.23;2.40;;;5.50;99.90;;;;;;5071317;28;20575;-45
2022/02/20 03:43:09;;;;;;;4.63;2.50;;;5.40;99.90;;;;;;5071754;28;20426;-45
2022/02/20 03:45:49;;;;;;;3.70;2.20;;;5.40;99.90;;;;;;5071283;28;20665;-44
2022/02/20 03:48:16;;;;;;;3.63;2.40;;;5.40;99.90;;;;;;5070797;28;20420;-44
2022/02/20 03:50:50;;;;;;;3.55;2.17;;;5.40;99.90;;;;;;5070678;28;20548;-43
2022/02/20 03:53:17;;;;;;;2.40;2.20;;;5.40;99.90;;;;;;5070380;28;20227;-43
2022/02/20 03:55:45;;;;;;;3.10;2.07;;;5.40;99.90;;;;;;5070763;28;20483;-45
2022/02/20 03:58:12;;;;;;;5.07;2.60;;;5.40;99.90;;;;;;5070572;28;20450;-45
2022/02/20 04:00:45;;;;;;;3.20;2.40;;;5.40;99.90;;;;;;5066495;28;20469;-45
2022/02/20 04:03:41;;;;;;;2.43;2.23;;;5.40;99.90;;;;;;5050384;28;20467;-45
2022/02/20 04:06:08;;;;;;;7.60;2.80;;;5.40;99.90;;;;;;5051706;28;20441;-45
2022/02/20 04:08:38;;;;;;;3.60;2.60;;;5.40;99.90;;;;;;5049727;28;20449;-44
2022/02/20 04:11:08;;;;;;;4.30;2.07;;;5.40;99.90;;;;;;5050660;28;20470;-44
2022/02/20 04:13:40;;;;;;;4.20;2.40;;;5.40;99.90;;;;;;5051192;28;20466;-45
2022/02/20 04:16:11;;;;;;;4.53;2.47;;;5.50;99.90;;;;;;5050660;28;20482;-45
2022/02/20 04:18:42;;;;;;;5.90;2.40;;;5.40;99.90;;;;;;5050039;28;20870;-43
2022/02/20 04:21:14;;;;;;;3.33;2.50;;;5.50;99.90;;;;;;5050376;28;20480;-44
2022/02/20 04:23:42;;;;;;;4.77;2.50;;;5.50;99.90;;;;;;5050008;28;20311;-45
2022/02/20 04:26:10;;;;;;;2.77;2.30;;;5.40;99.90;;;;;;5050177;28;20442;-44
2022/02/20 04:28:37;;;;;;;3.93;2.10;;;5.40;99.90;;;;;;5049759;28;20425;-45
2022/02/20 04:31:04;;;;;;;2.87;2.20;;;5.50;99.90;;;;;;5050083;28;20435;-45
2022/02/20 04:33:32;;;;;;;3.80;2.70;;;5.40;99.90;;;;;;5053144;28;20906;-45
2022/02/20 04:36:03;;;;;;;4.50;2.40;;;5.50;99.90;;;;;;5071396;28;20533;-45
2022/02/20 04:38:30;;;;;;;2.47;2.27;;;5.50;99.90;;;;;;5069988;28;20975;-45
2022/02/20 04:41:04;;;;;;;2.53;2.33;;;5.30;99.90;;;;;;5070942;28;20997;-45
2022/02/20 04:43:34;;;;;;;2.97;2.00;;;5.50;99.90;;;;;;5073969;28;20547;-42
2022/02/20 04:46:06;;;;;;;2.93;2.30;;;5.20;99.90;;;;;;5073017;28;20452;-43
2022/02/20 04:48:34;;;;;;;3.60;2.20;;;5.50;99.90;;;;;;5072860;28;20816;-46
2022/02/20 04:51:04;;;;;;;3.30;2.03;;;5.60;99.90;;;;;;5073211;28;20579;-44
2022/02/20 04:53:31;;;;;;;2.67;1.60;;;5.60;99.90;;;;;;5073102;28;20474;-44
2022/02/20 04:55:59;;;;;;;3.60;2.00;;;5.60;99.90;;;;;;5073154;28;20469;-45
2022/02/20 04:58:36;;;;;;;2.87;2.03;;;5.60;99.90;;;;;;5072839;28;20447;-44
2022/02/20 05:01:05;;;;;;;3.10;1.97;;;5.60;99.90;;;;;;5069571;28;20459;-43
2022/02/20 05:03:38;;;;;;;2.53;1.90;;;5.60;99.90;;;;;;5054463;28;20431;-42
2022/02/20 05:06:38;;;;;;;2.47;2.13;;;5.60;99.90;;;;;;5043758;28;20288;-45
2022/02/20 05:09:12;;;;;;;1.90;1.70;;;5.70;99.90;;;;;;5052810;28;20536;-42
2022/02/20 05:11:45;;;;;;;3.20;2.13;;;5.70;99.90;;;;;;5052937;28;20508;-43
2022/02/20 05:14:12;;;;;;;2.37;1.90;;;5.70;99.90;;;;;;5052830;28;20515;-42
2022/02/20 05:16:39;;;;;;;2.00;1.77;;;5.70;99.90;;;;;;5054212;28;20470;-44
2022/02/20 05:19:10;;;;;;;1.70;1.60;;;5.70;99.90;;;;;;5052368;28;20498;-43
2022/02/20 05:21:48;;;;;;;2.27;1.93;;;5.70;99.90;;;;;;5052917;28;20442;-44
2022/02/20 05:24:15;;;;;;;3.73;2.20;;;5.70;99.90;;;;;;5052640;28;20977;-45
2022/02/20 05:26:43;;;;;;;2.73;1.90;;;5.80;99.90;;;;;;5052425;28;20717;-42
2022/02/20 05:29:10;;;;;;;2.00;1.80;;;5.80;99.90;;;;;;5051944;28;20476;-44
2022/02/20 05:31:37;;;;;;;2.43;2.07;;;5.80;99.90;;;;;;5052428;28;20451;-42
2022/02/20 05:34:10;;;;;;;2.20;2.00;;;5.80;99.90;;;;;;5060440;28;20469;-41
2022/02/20 05:36:37;;;;;;;2.50;2.30;;;5.80;99.90;;;;;;5071911;28;20973;-42
2022/02/20 05:39:11;;;;;;;4.33;3.60;;;5.80;99.90;;;;;;5071510;28;20979;-43
2022/02/20 05:41:41;;;;;;;4.83;4.37;;;5.90;99.90;;;;;;5072297;28;20487;-42
2022/02/20 05:44:08;;;;;;;4.87;4.10;;;5.80;99.90;;;;;;5072143;28;20565;-42
2022/02/20 05:46:39;;;;;;;5.83;5.23;;;5.80;99.90;;;;;;5072091;28;20455;-42
2022/02/20 05:49:12;;;;;;;4.77;4.27;;;5.80;99.90;;;;;;5071534;28;20508;-42
2022/02/20 05:51:48;;;;;;;6.47;5.90;;;5.70;99.90;;;;;;5071846;28;20433;-42
2022/02/20 05:54:23;;;;;;;5.17;4.23;;;5.70;99.90;;;;;;5071930;28;20535;-41
2022/02/20 05:56:51;;;;;;;5.17;4.67;;;5.70;99.90;;;;;;5072105;28;20466;-42
2022/02/20 05:59:20;;;;;;;5.60;5.10;;;5.70;99.90;;;;;;5071812;28;20985;-40
2022/02/20 06:01:50;;;;;;;4.90;4.40;;;5.70;99.90;;;;;;5068684;28;20774;-41
2022/02/20 06:04:17;;;;;;;5.40;4.60;;;5.70;99.90;;;;;;5051623;28;20468;-43
2022/02/20 06:06:49;;;;;;;3.90;3.60;;;5.70;99.90;;;;;;5053343;28;20443;-41
2022/02/20 06:09:36;;;;;;;3.40;3.10;;;5.70;99.90;;;;;;5053163;28;20535;-41
2022/02/20 06:12:14;;;;;;;3.33;2.97;;;5.60;99.90;;;;;;5051759;28;20677;-44
2022/02/20 06:14:47;;;;;;;4.97;2.80;;;5.60;99.90;;;;;;5053033;28;20451;-43
2022/02/20 06:17:31;;;;;;;2.80;2.60;;;5.60;99.90;;;;;;5051665;28;20605;-42
2022/02/20 06:20:25;;;;;;;5.13;4.57;;;5.60;99.90;;;;;;5051539;28;20424;-42
2022/02/20 06:23:11;;;;;;;3.80;2.90;;;6.00;99.90;;;;;;5045453;28;20792;-43
2022/02/20 06:25:55;;;;;;;3.30;3.00;;;5.60;99.90;;;;;;5052762;28;20434;-42
2022/02/20 06:28:25;;;;;;;4.00;2.80;;;5.60;99.90;;;;;;5051100;28;20542;-44
2022/02/20 06:30:53;;;;;;;3.45;3.15;;;5.60;99.90;;;;;;5051200;28;20537;-42
2022/02/20 06:33:28;;;;;;;3.87;3.17;;;5.60;99.90;;;;;;5053571;28;20632;-41
2022/02/20 06:35:58;;;;;;;3.50;3.20;;;5.60;99.90;;;;;;5071460;28;20825;-41
2022/02/20 06:38:26;;;;;;;6.47;3.05;;;5.60;99.90;;;;;;5071030;28;20800;-43
2022/02/20 06:40:56;;;;;;;3.23;3.03;;;5.60;99.90;;;;;;5071173;28;20245;-42
2022/02/20 06:43:30;;;;;;;3.40;3.00;;;5.60;99.90;;;;;;5070945;28;20453;-43
2022/02/20 06:46:26;;;;;;;3.73;2.73;;;5.60;99.90;;;;;;5067303;28;20199;-41
2022/02/20 06:49:11;;;;;;;3.53;3.23;;;5.60;99.90;;;;;;5070712;28;20449;-42
2022/02/20 06:51:56;;;;;;;3.13;2.83;;;5.70;99.90;;;;;;5070910;28;20535;-42
2022/02/20 06:54:38;;;;;;;4.40;3.50;;;5.70;99.90;;;;;;5071428;28;20588;-42
2022/02/20 06:57:21;;;;;;;3.70;2.90;;;5.70;99.90;;;;;;5072042;28;20234;-43
2022/02/20 06:59:48;;;;;;;3.80;3.50;;;5.80;99.90;;;;;;5071773;28;20917;-43
2022/02/20 07:02:14;;;;;;;3.87;3.57;;;5.80;99.90;;;;;;5072142;28;20445;-43
2022/02/20 07:04:41;;;;;;;3.97;3.20;;;5.80;99.90;;;;;;5071174;28;20589;-42
2022/02/20 07:07:07;;;;;;;3.23;2.80;;;5.90;99.90;;;;;;5071991;28;20437;-44
2022/02/20 07:09:34;;;;;;;4.00;3.30;;;5.90;99.90;;;;;;5071803;28;20459;-43
2022/02/20 07:12:01;;;;;;;3.60;3.30;;;5.90;99.90;;;;;;5072045;28;20907;-42
2022/02/20 07:14:29;;;;;;;4.83;3.27;;;5.90;99.90;;;;;;5071913;28;20439;-42
2022/02/20 07:16:55;;;;;;;4.23;3.30;;;6.00;99.90;;;;;;5071795;28;20514;-42
2022/02/20 07:19:22;;;;;;;4.10;3.70;;;6.00;99.90;;;;;;5071642;28;20413;-45
2022/02/20 07:21:49;;;;;;;4.10;3.70;;;6.00;99.90;;;;;;5072123;28;20824;-43
2022/02/20 07:24:15;;;;;;;3.83;3.53;;;6.00;99.90;;;;;;5071561;28;20451;-42
2022/02/20 07:26:42;;;;;;;3.90;3.60;;;6.00;99.90;;;;;;5071705;28;20434;-41
2022/02/20 07:29:08;;;;;;;4.93;3.60;;;6.10;99.90;;;;;;5071220;28;20777;-43
2022/02/20 07:31:36;;;;;;;5.77;4.13;;;6.10;99.90;;;;;;5071939;28;20467;-44
2022/02/20 07:34:03;;;;;;;5.37;4.77;;;6.10;99.90;;;;;;5071729;28;20785;-44
2022/02/20 07:36:29;;;;;;;5.50;5.00;;;6.10;99.90;;;;;;5071716;28;20521;-42
2022/02/20 07:38:56;;;;;;;6.73;6.03;;;6.10;99.90;;;;;;5071604;28;20434;-44
2022/02/20 07:41:23;;;;;;;6.40;5.80;;;6.20;99.90;;;;;;5071779;28;20421;-43
2022/02/20 07:43:50;;;;;;;6.67;6.07;;;6.20;99.90;;;;;;5071564;28;20436;-43
2022/02/20 07:46:17;;;;;;;7.17;6.47;;;6.20;99.90;;;;;;5071482;28;20859;-42
2022/02/20 07:48:46;;;;;;;6.37;5.77;;;6.30;99.90;;;;;;5071491;28;20468;-42
2022/02/20 07:51:13;;;;;;;7.50;6.00;;;6.30;99.90;;;;;;5071679;28;20483;-45
2022/02/20 07:53:41;;;;;;;7.20;6.50;;;6.40;99.90;;;;;;5072018;28;20449;-43
2022/02/20 07:56:08;;;;;;;8.07;7.30;;;6.40;99.90;;;;;;5070581;28;20923;-44
2022/02/20 07:58:36;;;;;;;6.90;6.17;;;6.40;99.90;;;;;;5071130;28;20508;-45
2022/02/20 08:01:04;;;;;;;8.47;6.00;;;6.40;99.90;;;;;;5071137;28;20429;-45
2022/02/20 08:03:31;;;;;;;9.83;8.40;;;6.40;99.90;;;;;;5071300;28;20436;-43
2022/02/20 08:06:03;;;;;;;5.67;4.40;;;6.50;99.90;;;;;;5071229;28;20427;-43
2022/02/20 08:08:30;;;;;;;8.87;4.97;;;6.50;99.90;;;;;;5071096;28;20534;-43
2022/02/20 08:10:57;;;;;;;5.73;5.13;;;6.50;99.90;;;;;;5071390;28;20413;-46
2022/02/20 08:13:24;;;;;;;5.73;5.13;;;6.60;99.90;;;;;;5071287;28;20452;-43
2022/02/20 08:15:51;;;;;;;5.23;4.40;;;6.60;99.90;;;;;;5071869;28;20443;-43
2022/02/20 08:18:18;;;;;;;4.87;4.13;;;6.70;99.90;;;;;;5075029;28;20994;-43
2022/02/20 08:20:45;;;;;;;4.63;4.23;;;6.80;99.90;;;;;;5075038;28;20845;-41
2022/02/20 08:23:13;;;;;;;5.73;5.13;;;6.80;99.90;;;;;;5073484;28;20471;-44
2022/02/20 08:25:40;;;;;;;5.10;4.33;;;6.90;99.90;;;;;;5074826;28;20876;-43
2022/02/20 08:28:08;;;;;;;4.40;4.00;;;6.90;99.90;;;;;;5075653;28;20406;-44
2022/02/20 08:30:37;;;;;;;4.53;4.10;;;7.00;99.90;;;;;;5073126;28;20550;-43
2022/02/20 08:33:05;;;;;;;5.50;4.90;;;7.00;99.90;;;;;;5074773;28;20447;-44
2022/02/20 08:35:32;;;;;;;5.80;4.17;;;7.00;99.90;;;;;;5074620;28;20437;-43
2022/02/20 08:38:01;;;;;;;3.97;3.60;;;7.10;99.90;;;;;;5074661;28;20441;-42
2022/02/20 08:40:29;;;;;;;4.53;4.13;;;7.10;99.90;;;;;;5074150;28;20439;-42
2022/02/20 08:42:56;;;;;;;4.97;4.23;;;7.10;99.90;;;;;;5074351;28;20444;-42
2022/02/20 08:45:23;;;;;;;5.33;4.23;;;7.10;99.90;;;;;;5074490;28;20516;-42
2022/02/20 08:47:49;;;;;;;4.80;4.10;;;7.10;99.90;;;;;;5074224;28;20988;-42
2022/02/20 08:50:16;;;;;;;4.40;4.00;;;7.10;99.90;;;;;;5074014;28;20415;-46
2022/02/20 08:52:45;;;;;;;5.17;4.30;;;7.20;99.90;;;;;;5074505;28;20475;-43
2022/02/20 08:55:13;;;;;;;5.83;4.93;;;7.20;99.90;;;;;;5074424;28;20425;-43
2022/02/20 08:57:43;;;;;;;6.03;4.43;;;7.20;99.90;;;;;;5074279;28;20454;-44
2022/02/20 09:00:11;;;;;;;4.30;3.90;;;7.30;99.90;;;;;;5073851;28;20802;-42
2022/02/20 09:02:38;;;;;;;4.97;4.47;;;7.30;99.90;;;;;;5074267;28;20419;-44
2022/02/20 09:05:05;;;;;;;5.00;4.43;;;7.40;99.90;;;;;;5073978;28;20427;-44
2022/02/20 09:07:32;;;;;;;5.03;4.53;;;7.50;99.90;;;;;;5073961;28;20435;-42
2022/02/20 09:09:58;;;;;;;5.30;4.80;;;7.50;99.90;;;;;;5074012;28;20932;-42
2022/02/20 09:12:25;;;;;;;5.70;4.10;;;7.60;99.90;;;;;;5074000;28;20405;-43
2022/02/20 09:14:53;;;;;;;5.47;4.87;;;7.70;99.90;;;;;;5073827;28;20434;-42
2022/02/20 09:17:19;;;;;;;7.40;5.63;;;7.70;99.90;;;;;;5074051;28;20448;-43
2022/02/20 09:19:46;;;;;;;6.30;5.33;;;7.80;99.90;;;;;;5073808;28;20417;-43
2022/02/20 09:22:14;;;;;;;7.30;6.00;;;7.90;99.90;;;;;;5073737;28;20441;-42
2022/02/20 09:24:40;;;;;;;5.83;4.97;;;7.90;99.90;;;;;;5073597;28;20462;-43
2022/02/20 09:27:07;;;;;;;4.97;4.50;;;7.90;99.90;;;;;;5073120;28;20827;-45
2022/02/20 09:29:35;;;;;;;5.13;4.63;;;7.90;99.90;;;;;;5072857;28;20425;-44
2022/02/20 09:32:04;;;;;;;6.30;5.70;;;8.00;99.90;;;;;;5073650;28;20444;-44
2022/02/20 09:34:31;;;;;;;5.73;5.13;;;8.00;99.90;;;;;;5073189;28;20468;-43
2022/02/20 09:36:58;;;;;;;5.23;4.73;;;8.00;99.90;;;;;;5072968;28;20441;-43
2022/02/20 09:39:24;;;;;;;4.53;4.13;;;7.90;99.90;;;;;;5072938;28;20491;-42
2022/02/20 09:41:51;;;;;;;5.43;4.80;;;7.90;99.90;;;;;;5073468;28;20441;-41
2022/02/20 09:44:18;;;;;;;6.83;5.40;;;8.10;99.90;;;;;;5073401;28;20465;-43
2022/02/20 09:46:46;;;;;;;5.37;4.87;;;8.10;99.90;;;;;;5071648;28;20516;-43
2022/02/20 09:49:14;;;;;;;6.20;5.10;;;8.10;99.90;;;;;;5072823;28;20922;-43
2022/02/20 09:51:41;;;;;;;5.70;5.00;;;8.10;99.90;;;;;;5072922;28;20420;-43
2022/02/20 09:54:08;;;;;;;5.10;4.60;;;8.20;99.90;;;;;;5072589;28;20807;-45
2022/02/20 09:56:35;;;;;;;5.50;5.00;;;8.20;99.90;;;;;;5073204;28;20416;-42
2022/02/20 09:59:01;;;;;;;5.77;5.17;;;8.20;99.90;;;;;;5072200;28;20461;-43
2022/02/20 10:01:28;;;;;;;6.53;5.70;;;8.10;99.90;;;;;;5072698;28;20419;-46
2022/02/20 10:03:55;;;;;;;5.50;5.00;;;8.20;99.90;;;;;;5073041;28;20825;-44
2022/02/20 10:06:27;;;;;;;5.60;5.10;;;8.20;99.90;;;;;;5073006;28;20408;-43
2022/02/20 10:08:55;;;;;;;6.40;5.80;;;8.20;99.90;;;;;;5070871;28;20838;-42
2022/02/20 10:11:24;;;;;;;6.90;6.20;;;8.20;99.90;;;;;;5072963;28;20976;-43
2022/02/20 10:13:52;;;;;;;8.47;6.53;;;8.30;99.90;;;;;;5072492;28;20794;-44
2022/02/20 10:16:21;;;;;;;6.60;5.63;;;8.20;99.90;;;;;;5072624;28;20445;-44
2022/02/20 10:19:02;;;;;;;7.03;6.07;;;8.20;99.90;;;;;;5072048;28;20792;-43
2022/02/20 10:21:50;;;;;;;8.53;6.70;;;8.20;99.90;;;;;;5072222;28;20468;-44
2022/02/20 10:24:35;;;;;;;6.90;6.20;;;8.20;99.90;;;;;;5072689;28;20448;-42
2022/02/20 10:27:20;;;;;;;6.50;5.90;;;8.20;99.90;;;;;;5072587;28;20403;-42
2022/02/20 10:30:17;;;;;;;12.23;9.67;;;8.20;99.90;;;;;;5071635;28;20781;-43
2022/02/20 10:32:44;;;;;;;8.13;6.87;;;8.20;99.90;;;;;;5072207;28;20865;-42
2022/02/20 10:35:13;;;;;;;6.73;5.70;;;8.20;99.90;;;;;;5072215;28;20461;-43
2022/02/20 10:37:42;;;;;;;8.70;7.80;;;8.30;99.90;;;;;;5071904;28;20472;-42
2022/02/20 10:40:26;;;;;;;10.90;7.40;;;8.30;99.90;;;;;;5071114;28;20482;-46
2022/02/20 10:42:54;;;;;;;9.80;7.13;;;8.30;99.90;;;;;;5072324;28;20413;-42
2022/02/20 10:45:27;;;;;;;8.40;7.43;;;8.40;99.90;;;;;;5072735;28;20966;-44
2022/02/20 10:47:54;;;;;;;8.10;7.30;;;8.50;99.90;;;;;;5072099;28;20412;-44
2022/02/20 10:50:23;;;;;;;8.67;6.00;;;8.50;99.90;;;;;;5072278;28;20415;-44
2022/02/20 10:55:45;;;;;;;7.00;6.00;;;8.60;99.90;;;;;;5130946;27;21031;-45
2022/02/20 10:58:17;;;;;;;7.77;6.60;;;8.60;99.90;;;;;;5130201;28;20446;-45
2022/02/20 11:00:51;;;;;;;7.40;6.17;;;8.60;99.90;;;;;;5130525;28;20620;-42
2022/02/20 11:03:19;;;;;;;6.90;5.87;;;8.70;99.90;;;;;;5131339;28;20804;-44
2022/02/20 11:05:46;;;;;;;7.27;5.90;;;8.70;99.90;;;;;;5129895;28;20443;-46
2022/02/20 11:08:14;;;;;;;7.77;5.97;;;8.80;99.90;;;;;;5127664;27;20819;-44
2022/02/20 11:10:43;;;;;;;7.87;6.63;;;8.80;99.90;;;;;;5129698;27;20427;-45
2022/02/20 11:13:11;;;;;;;7.27;6.57;;;8.80;99.90;;;;;;5128448;28;20435;-46
2022/02/20 11:15:39;;;;;;;6.40;5.80;;;8.90;99.90;;;;;;5128648;27;20447;-45
2022/02/20 11:18:08;;;;;;;6.40;5.70;;;8.90;99.90;;;;;;5128947;28;20459;-45
2022/02/20 11:20:38;;;;;;;5.30;4.80;;;8.90;99.90;;;;;;5128746;28;20946;-44
2022/02/20 11:23:06;;;;;;;7.87;6.67;;;8.90;99.90;;;;;;5131141;27;20785;-44
2022/02/20 11:25:35;;;;;;;8.40;6.50;;;8.90;99.90;;;;;;5131428;28;20412;-44
2022/02/20 11:28:05;;;;;;;6.30;5.70;;;8.80;99.90;;;;;;5130618;28;20926;-46
2022/02/20 11:30:33;;;;;;;8.00;7.20;;;8.80;99.90;;;;;;5129491;27;20425;-44
2022/02/20 11:33:03;;;;;;;9.17;8.27;;;8.80;99.90;;;;;;5130519;28;20426;-44
2022/02/20 11:35:31;;;;;;;7.90;6.80;;;8.80;99.90;;;;;;5110679;28;20446;-44
2022/02/20 11:38:00;;;;;;;7.23;5.30;;;8.80;99.90;;;;;;5110238;28;20464;-43
2022/02/20 11:40:29;;;;;;;6.83;6.13;;;8.80;99.90;;;;;;5109181;28;20450;-45
2022/02/20 11:43:12;;;;;;;6.23;5.60;;;8.70;99.90;;;;;;5110437;28;20424;-46
2022/02/20 11:46:07;;;;;;;11.63;8.00;;;8.70;99.90;;;;;;5109167;28;20402;-44
2022/02/20 11:48:35;;;;;;;11.83;7.17;;;8.60;99.90;;;;;;5110135;28;20410;-44
2022/02/20 11:51:13;;;;;;;17.07;11.50;;;8.60;99.90;;;;;;5110114;28;20534;-45
2022/02/20 11:53:39;;;;;;;8.57;6.60;;;8.60;99.90;;;;;;5109079;28;20451;-44
2022/02/20 11:56:09;;;;;;;11.87;6.30;;;8.50;99.90;;;;;;5110948;28;20403;-45
2022/02/20 11:58:37;;;;;;;8.60;4.10;;;8.40;99.90;;;;;;5108835;28;20535;-43
2022/02/20 12:01:13;;;;;;;6.50;4.70;;;8.40;99.90;;;;;;5118763;27;20462;-43
2022/02/20 12:04:08;;;;;;;7.80;5.20;;;8.40;99.90;;;;;;5130517;28;20458;-45
2022/02/20 12:06:40;;;;;;;3.70;3.10;;;8.30;99.90;;;;;;5120864;28;20964;-46
2022/02/20 12:09:25;;;;;;;4.60;3.53;;;8.30;99.90;;;;;;5115943;28;20435;-44
2022/02/20 12:11:52;;;;;;;4.57;3.87;;;8.30;99.90;;;;;;5116676;28;20464;-45
2022/02/20 12:14:22;;;;;;;5.60;4.00;;;8.20;99.90;;;;;;5116340;28;20458;-44
2022/02/20 12:16:55;;;;;;;4.33;3.63;;;8.10;99.90;;;;;;5116363;28;20409;-44
2022/02/20 12:19:25;;;;;;;4.73;3.80;;;8.10;99.90;;;;;;5118634;28;20825;-45
2022/02/20 12:22:04;;;;;;;4.30;3.90;;;7.90;99.90;;;;;;5117072;28;20959;-45
2022/02/20 12:24:44;;;;;;;5.00;3.33;;;7.90;99.90;;;;;;5116410;28;20430;-44
2022/02/20 12:27:19;;;;;;;3.73;3.30;;;7.90;99.90;;;;;;5116763;28;20440;-44
2022/02/20 12:29:50;;;;;;;6.50;4.47;;;7.80;99.90;;;;;;5115626;27;20905;-45
2022/02/20 12:32:25;;;;;;;6.93;4.00;;;7.80;99.90;;;;;;5115764;28;20799;-45
2022/02/20 12:35:13;;;;;;;4.60;4.00;;;7.70;99.90;;;;;;5101309;28;20481;-43
2022/02/20 12:37:42;;;;;;;4.80;4.30;;;7.70;99.90;;;;;;5096054;28;20920;-43
2022/02/20 12:40:11;;;;;;;6.63;4.00;;;7.60;99.90;;;;;;5094173;28;20918;-44
2022/02/20 12:42:41;;;;;;;6.80;4.47;;;7.60;99.90;;;;;;5095244;28;20471;-45
2022/02/20 12:45:16;;;;;;;5.70;4.90;;;7.50;99.90;;;;;;5095522;28;20433;-45
2022/02/20 12:47:43;;;;;;;6.60;5.47;;;7.50;99.90;;;;;;5096107;28;20430;-44
2022/02/20 12:50:12;;;;;;;8.40;5.67;;;7.50;99.90;;;;;;5096037;28;20464;-43
2022/02/20 12:52:41;;;;;;;8.50;5.57;;;7.50;99.90;;;;;;5096215;28;20441;-44
2022/02/20 12:55:09;;;;;;;11.00;6.67;;;7.50;99.90;;;;;;5094653;28;20484;-44
2022/02/20 12:57:38;;;;;;;6.20;5.20;;;7.60;99.90;;;;;;5094995;28;20405;-44
2022/02/20 13:00:09;;;;;;;9.20;5.33;;;7.60;99.90;;;;;;5095030;28;20437;-44
2022/02/20 13:02:40;;;;;;;9.00;5.23;;;7.60;99.90;;;;;;5115594;28;20438;-45
2022/02/20 13:05:10;;;;;;;5.77;4.90;;;7.70;99.90;;;;;;5114290;28;20473;-47
2022/02/20 13:07:41;;;;;;;5.97;4.83;;;7.70;99.90;;;;;;5112883;28;20560;-45
2022/02/20 13:10:09;;;;;;;7.80;4.87;;;7.70;99.90;;;;;;5113885;28;20410;-42
2022/02/20 13:12:35;;;;;;;7.07;6.37;;;7.70;99.90;;;;;;5114289;28;20399;-43
2022/02/20 13:15:03;;;;;;;6.33;5.73;;;7.70;99.90;;;;;;5114531;28;20985;-43
2022/02/20 13:17:50;;;;;;;13.03;7.83;;;7.70;99.90;;;;;;5113197;28;20901;-43